Time;durP1;ratioP1;P1;durP2;ratioP2;P2;SDS_P1;SDS_P2;PMS_P1;PMS_P2;Temp;Humidity;BMP_temperature;BMP_pressure;BME280_temperature;BME280_humidity;BME280_pressure;Samples;Min_cycle;Max_cycle;Signal;HPM_P1;HPM_P2
2023/09/02 00:01:02;;;;;;;10.20;8.57;;;;;;;;;;5036897;28;20182;-71
2023/09/02 00:03:28;;;;;;;9.77;8.57;;;;;;;;;;5054982;28;20179;-72
2023/09/02 00:05:54;;;;;;;12.47;8.20;;;;;;;;;;5036595;28;20557;-71
2023/09/02 00:08:20;;;;;;;9.43;8.33;;;;;;;;;;5054401;28;20225;-71
2023/09/02 00:10:46;;;;;;;11.47;7.63;;;;;;;;;;5035965;28;20202;-70
2023/09/02 00:13:12;;;;;;;16.53;8.67;;;;;;;;;;5054243;28;20179;-70
2023/09/02 00:15:38;;;;;;;14.07;8.13;;;;;;;;;;5036633;28;20310;-70
2023/09/02 00:18:04;;;;;;;12.37;9.20;;;;;;;;;;5036716;28;20256;-72
2023/09/02 00:20:30;;;;;;;11.30;7.93;;;;;;;;;;5069571;22;20272;-66
2023/09/02 00:22:56;;;;;;;11.10;7.40;;;;;;;;;;5063300;28;20182;-66
2023/09/02 00:25:24;;;;;;;11.77;8.03;;;;;;;;;;5065993;28;20182;-65
2023/09/02 00:27:51;;;;;;;10.07;8.00;;;;;;;;;;5045641;28;20212;-65
2023/09/02 00:30:17;;;;;;;8.60;7.70;;;;;;;;;;5061181;28;20230;-65
2023/09/02 00:32:43;;;;;;;11.77;7.93;;;;;;;;;;5065829;28;20178;-65
2023/09/02 00:35:10;;;;;;;13.77;8.27;;;;;;;;;;5048236;28;20238;-66
2023/09/02 00:37:36;;;;;;;13.70;8.80;;;;;;;;;;5067778;28;20174;-65
2023/09/02 00:40:02;;;;;;;12.97;10.13;;;;;;;;;;5071859;28;20197;-65
2023/09/02 00:42:29;;;;;;;14.47;10.30;;;;;;;;;;5069493;28;20182;-65
2023/09/02 00:44:55;;;;;;;11.73;10.30;;;;;;;;;;5043340;28;20178;-65
2023/09/02 00:47:21;;;;;;;11.07;8.90;;;;;;;;;;5061063;28;20175;-64
2023/09/02 00:49:47;;;;;;;15.40;9.20;;;;;;;;;;5061066;28;20261;-65
2023/09/02 00:52:13;;;;;;;18.33;11.00;;;;;;;;;;5042794;28;20676;-66
2023/09/02 00:54:39;;;;;;;16.23;9.93;;;;;;;;;;5060008;28;20181;-65
2023/09/02 00:57:06;;;;;;;13.73;9.97;;;;;;;;;;5041791;28;20201;-65
2023/09/02 00:59:32;;;;;;;13.37;9.17;;;;;;;;;;5060096;28;20698;-65
2023/09/02 01:01:59;;;;;;;17.20;9.43;;;;;;;;;;5059896;28;20202;-66
2023/09/02 01:04:25;;;;;;;10.13;8.70;;;;;;;;;;5059042;28;20188;-66
2023/09/02 01:06:51;;;;;;;11.07;8.27;;;;;;;;;;5055379;28;20244;-67
2023/09/02 01:09:17;;;;;;;10.63;7.87;;;;;;;;;;5054101;28;20208;-64
2023/09/02 01:11:43;;;;;;;13.77;8.30;;;;;;;;;;5054091;28;20210;-65
2023/09/02 01:14:11;;;;;;;9.33;7.37;;;;;;;;;;5036422;28;20181;-65
2023/09/02 01:16:38;;;;;;;12.77;7.23;;;;;;;;;;5036497;28;20269;-65
2023/09/02 01:19:08;;;;;;;11.20;7.40;;;;;;;;;;5054639;28;20662;-64
2023/09/02 01:21:37;;;;;;;12.47;7.90;;;;;;;;;;5053472;28;20217;-65
2023/09/02 01:24:16;;;;;;;9.27;7.03;;;;;;;;;;5053163;28;20193;-65
2023/09/02 01:26:57;;;;;;;10.13;7.50;;;;;;;;;;5035312;28;20175;-65
2023/09/02 01:29:25;;;;;;;12.93;7.50;;;;;;;;;;5053401;28;20186;-66
2023/09/02 01:31:52;;;;;;;10.13;7.67;;;;;;;;;;5053023;28;20210;-66
2023/09/02 01:34:19;;;;;;;9.40;8.00;;;;;;;;;;5053135;28;20193;-65
2023/09/02 01:36:50;;;;;;;12.07;7.60;;;;;;;;;;5035136;28;20208;-65
2023/09/02 01:39:20;;;;;;;12.10;7.93;;;;;;;;;;5035253;28;20178;-66
2023/09/02 01:41:47;;;;;;;9.40;8.20;;;;;;;;;;5052945;28;20198;-66
2023/09/02 01:44:14;;;;;;;10.27;8.50;;;;;;;;;;5035610;28;20819;-65
2023/09/02 01:46:40;;;;;;;12.63;8.10;;;;;;;;;;5052974;28;20261;-66
2023/09/02 01:49:06;;;;;;;11.73;8.90;;;;;;;;;;5052862;28;20263;-66
2023/09/02 01:51:33;;;;;;;11.00;9.20;;;;;;;;;;5053380;28;20206;-65
2023/09/02 01:53:59;;;;;;;15.00;9.93;;;;;;;;;;5052683;28;20190;-66
2023/09/02 01:56:24;;;;;;;11.17;9.00;;;;;;;;;;5052863;28;20262;-66
2023/09/02 01:58:51;;;;;;;12.30;9.87;;;;;;;;;;5035152;28;20190;-66
2023/09/02 02:01:17;;;;;;;13.07;10.03;;;;;;;;;;5052891;28;20206;-66
2023/09/02 02:03:49;;;;;;;17.70;11.57;;;;;;;;;;5034745;28;20183;-66
2023/09/02 02:06:16;;;;;;;14.47;11.73;;;;;;;;;;5052610;28;20204;-65
2023/09/02 02:08:46;;;;;;;15.97;11.17;;;;;;;;;;5052467;28;20179;-66
2023/09/02 02:11:12;;;;;;;13.00;10.17;;;;;;;;;;5052570;28;20206;-65
2023/09/02 02:13:38;;;;;;;11.50;10.30;;;;;;;;;;5034587;28;20182;-66
2023/09/02 02:16:04;;;;;;;14.50;10.10;;;;;;;;;;5052626;28;20205;-66
2023/09/02 02:18:31;;;;;;;24.97;14.90;;;;;;;;;;5034445;28;20178;-66
2023/09/02 02:21:01;;;;;;;17.33;12.10;;;;;;;;;;5052041;28;20206;-66
2023/09/02 02:23:27;;;;;;;14.10;11.50;;;;;;;;;;5034481;28;20273;-66
2023/09/02 02:25:53;;;;;;;15.30;11.50;;;;;;;;;;5055414;28;20214;-65
2023/09/02 02:28:19;;;;;;;15.50;11.40;;;;;;;;;;5059144;28;20187;-65
2023/09/02 02:30:45;;;;;;;15.77;12.60;;;;;;;;;;5057177;28;20213;-66
2023/09/02 02:33:11;;;;;;;15.20;12.73;;;;;;;;;;5034411;28;20183;-66
2023/09/02 02:35:37;;;;;;;14.90;12.57;;;;;;;;;;5054879;28;20175;-66
2023/09/02 02:38:03;;;;;;;17.40;12.50;;;;;;;;;;5056402;28;20175;-66
2023/09/02 02:40:29;;;;;;;14.50;11.13;;;;;;;;;;5037831;28;20213;-64
2023/09/02 02:42:55;;;;;;;11.80;9.80;;;;;;;;;;5055697;28;20178;-64
2023/09/02 02:45:21;;;;;;;12.87;9.87;;;;;;;;;;5037786;28;20224;-65
2023/09/02 02:47:47;;;;;;;13.57;9.97;;;;;;;;;;5056003;28;20216;-65
2023/09/02 02:50:13;;;;;;;12.80;10.23;;;;;;;;;;5055506;28;20260;-65
2023/09/02 02:52:39;;;;;;;14.17;10.07;;;;;;;;;;5055808;28;20182;-65
2023/09/02 02:55:05;;;;;;;12.90;10.17;;;;;;;;;;5055513;28;20245;-65
2023/09/02 02:57:31;;;;;;;11.40;10.20;;;;;;;;;;5055518;28;20174;-64
2023/09/02 02:59:57;;;;;;;11.73;10.47;;;;;;;;;;5055954;28;20721;-66
2023/09/02 03:02:23;;;;;;;13.47;10.10;;;;;;;;;;5056271;28;20536;-64
2023/09/02 03:04:49;;;;;;;15.13;9.80;;;;;;;;;;5056539;28;20670;-66
2023/09/02 03:07:15;;;;;;;13.07;9.73;;;;;;;;;;5055729;28;20528;-65
2023/09/02 03:09:41;;;;;;;13.07;9.90;;;;;;;;;;5055752;28;20178;-63
2023/09/02 03:12:07;;;;;;;12.13;9.97;;;;;;;;;;5037683;28;20202;-64
2023/09/02 03:14:33;;;;;;;17.67;10.47;;;;;;;;;;5037575;28;20676;-65
2023/09/02 03:16:59;;;;;;;17.40;12.40;;;;;;;;;;5055631;28;20193;-65
2023/09/02 03:19:26;;;;;;;21.47;14.27;;;;;;;;;;5055593;28;20185;-66
2023/09/02 03:21:52;;;;;;;33.27;21.17;;;;;;;;;;5055173;28;20221;-66
2023/09/02 03:24:18;;;;;;;34.60;20.90;;;;;;;;;;5055401;28;20178;-67
2023/09/02 03:26:44;;;;;;;35.23;20.27;;;;;;;;;;5037398;28;20273;-65
2023/09/02 03:29:09;;;;;;;28.40;17.37;;;;;;;;;;5055385;28;20178;-66
2023/09/02 03:31:37;;;;;;;31.03;17.07;;;;;;;;;;5055611;28;20299;-66
2023/09/02 03:34:03;;;;;;;25.60;15.93;;;;;;;;;;5055571;28;20181;-67
2023/09/02 03:36:29;;;;;;;24.27;14.97;;;;;;;;;;5055269;28;20559;-65
2023/09/02 03:38:55;;;;;;;24.23;14.53;;;;;;;;;;5037121;28;20261;-65
2023/09/02 03:41:23;;;;;;;23.20;13.93;;;;;;;;;;5037239;28;20268;-66
2023/09/02 03:43:49;;;;;;;16.47;12.20;;;;;;;;;;5055050;28;20179;-65
2023/09/02 03:46:15;;;;;;;19.47;12.87;;;;;;;;;;5036008;28;20182;-65
2023/09/02 03:48:41;;;;;;;23.60;16.17;;;;;;;;;;5037326;28;20241;-66
2023/09/02 03:51:11;;;;;;;24.23;14.80;;;;;;;;;;5054965;28;20206;-66
2023/09/02 03:53:37;;;;;;;29.60;16.00;;;;;;;;;;5054894;28;20272;-66
2023/09/02 03:56:03;;;;;;;31.53;15.97;;;;;;;;;;5037482;28;20185;-66
2023/09/02 03:58:30;;;;;;;26.67;16.13;;;;;;;;;;5037522;28;20551;-65
2023/09/02 04:00:56;;;;;;;28.83;15.77;;;;;;;;;;5055382;28;20202;-65
2023/09/02 04:03:22;;;;;;;30.83;15.20;;;;;;;;;;5037666;28;20240;-66
2023/09/02 04:05:49;;;;;;;26.30;15.80;;;;;;;;;;5037434;28;20187;-65
2023/09/02 04:08:18;;;;;;;29.17;15.73;;;;;;;;;;5055485;28;20187;-65
2023/09/02 04:10:44;;;;;;;37.03;19.83;;;;;;;;;;5037560;28;20241;-66
2023/09/02 04:13:11;;;;;;;39.60;19.73;;;;;;;;;;5056184;28;20217;-65
2023/09/02 04:15:36;;;;;;;31.47;18.50;;;;;;;;;;5038784;28;20175;-66
2023/09/02 04:18:03;;;;;;;37.17;19.27;;;;;;;;;;5055232;28;20552;-65
2023/09/02 04:20:28;;;;;;;33.77;17.57;;;;;;;;;;5054825;28;20241;-66
2023/09/02 04:22:54;;;;;;;30.53;16.30;;;;;;;;;;5054557;28;20214;-65
2023/09/02 04:25:20;;;;;;;30.00;17.20;;;;;;;;;;5054877;28;20183;-65
2023/09/02 04:27:46;;;;;;;28.97;16.43;;;;;;;;;;5054147;28;20236;-66
2023/09/02 04:30:13;;;;;;;32.60;16.93;;;;;;;;;;5054243;28;20202;-65
2023/09/02 04:32:39;;;;;;;29.00;16.87;;;;;;;;;;5054758;28;20175;-66
2023/09/02 04:35:05;;;;;;;29.07;16.73;;;;;;;;;;5056427;28;20175;-65
2023/09/02 04:37:31;;;;;;;32.47;15.57;;;;;;;;;;5059265;28;20539;-65
2023/09/02 04:39:57;;;;;;;26.43;16.40;;;;;;;;;;5059560;28;20217;-65
2023/09/02 04:42:23;;;;;;;24.50;15.23;;;;;;;;;;5042712;28;20645;-65
2023/09/02 04:44:50;;;;;;;27.63;15.10;;;;;;;;;;5062066;28;20261;-65
2023/09/02 04:47:16;;;;;;;23.43;15.17;;;;;;;;;;5041545;28;20186;-65
2023/09/02 04:49:42;;;;;;;19.83;13.57;;;;;;;;;;5054808;28;20675;-65
2023/09/02 04:52:08;;;;;;;19.97;12.93;;;;;;;;;;5054737;28;20296;-66
2023/09/02 04:54:34;;;;;;;24.27;13.00;;;;;;;;;;5054602;28;20178;-65
2023/09/02 04:57:00;;;;;;;22.50;12.80;;;;;;;;;;5036163;28;20235;-65
2023/09/02 04:59:26;;;;;;;23.10;12.60;;;;;;;;;;5036243;28;20174;-65
2023/09/02 05:01:52;;;;;;;22.83;13.23;;;;;;;;;;5054035;28;20194;-65
2023/09/02 05:04:18;;;;;;;15.90;12.00;;;;;;;;;;5053965;28;20667;-65
2023/09/02 05:06:44;;;;;;;17.93;12.57;;;;;;;;;;5053770;28;20178;-65
2023/09/02 05:09:10;;;;;;;18.07;11.00;;;;;;;;;;5054073;28;20190;-65
2023/09/02 05:11:36;;;;;;;17.20;11.23;;;;;;;;;;5035553;28;20213;-65
2023/09/02 05:14:02;;;;;;;21.90;11.67;;;;;;;;;;5053468;28;20171;-65
2023/09/02 05:16:28;;;;;;;25.50;13.37;;;;;;;;;;5053706;28;20177;-64
2023/09/02 05:18:54;;;;;;;20.07;12.20;;;;;;;;;;5053785;28;20549;-64
2023/09/02 05:21:20;;;;;;;21.03;12.80;;;;;;;;;;5053564;28;20297;-64
2023/09/02 05:23:46;;;;;;;17.77;11.73;;;;;;;;;;5035776;28;20244;-64
2023/09/02 05:26:12;;;;;;;20.17;12.73;;;;;;;;;;5053349;28;20652;-64
2023/09/02 05:28:38;;;;;;;17.57;11.57;;;;;;;;;;5053311;28;20182;-64
2023/09/02 05:31:04;;;;;;;17.03;10.83;;;;;;;;;;5053051;28;20707;-66
2023/09/02 05:33:30;;;;;;;18.23;10.37;;;;;;;;;;5053005;28;20521;-65
2023/09/02 05:35:56;;;;;;;16.33;10.83;;;;;;;;;;5035358;28;20195;-65
2023/09/02 05:38:22;;;;;;;15.27;10.50;;;;;;;;;;5053364;28;20175;-66
2023/09/02 05:40:48;;;;;;;17.70;10.83;;;;;;;;;;5053416;28;20202;-66
2023/09/02 05:43:14;;;;;;;15.77;10.10;;;;;;;;;;5035264;28;20205;-65
2023/09/02 05:45:40;;;;;;;15.20;10.47;;;;;;;;;;5053027;28;20244;-65
2023/09/02 05:48:07;;;;;;;13.93;9.90;;;;;;;;;;5053189;28;20648;-65
2023/09/02 05:50:33;;;;;;;13.23;9.10;;;;;;;;;;5035164;28;20218;-65
2023/09/02 05:52:59;;;;;;;17.00;10.03;;;;;;;;;;5035610;28;20182;-67
2023/09/02 05:55:25;;;;;;;15.87;10.00;;;;;;;;;;5053341;28;20181;-67
2023/09/02 05:57:51;;;;;;;14.27;8.93;;;;;;;;;;5053056;28;20174;-67
2023/09/02 06:00:17;;;;;;;16.10;8.90;;;;;;;;;;5036550;28;20570;-67
2023/09/02 06:02:43;;;;;;;9.90;7.70;;;;;;;;;;5037479;28;20185;-67
2023/09/02 06:05:09;;;;;;;9.10;7.40;;;;;;;;;;5054879;28;20552;-67
2023/09/02 06:07:35;;;;;;;13.23;7.00;;;;;;;;;;5055432;28;20175;-66
2023/09/02 06:10:01;;;;;;;10.17;7.33;;;;;;;;;;5038513;28;20202;-66
2023/09/02 06:12:27;;;;;;;10.57;6.97;;;;;;;;;;5056728;28;20211;-67
2023/09/02 06:14:53;;;;;;;7.93;7.10;;;;;;;;;;5038694;28;20182;-66
2023/09/02 06:17:19;;;;;;;6.87;6.00;;;;;;;;;;5056692;28;20656;-67
2023/09/02 06:19:45;;;;;;;7.57;6.23;;;;;;;;;;5056718;28;20244;-66
2023/09/02 06:22:11;;;;;;;8.20;6.70;;;;;;;;;;5038778;28;20281;-66
2023/09/02 06:24:37;;;;;;;7.97;5.60;;;;;;;;;;5056869;28;20178;-66
2023/09/02 06:27:03;;;;;;;9.00;5.40;;;;;;;;;;5056713;28;20236;-66
2023/09/02 06:29:32;;;;;;;8.20;4.80;;;;;;;;;;5039380;28;20186;-66
2023/09/02 06:31:58;;;;;;;8.33;5.37;;;;;;;;;;5057002;28;20202;-66
2023/09/02 06:34:24;;;;;;;6.77;5.23;;;;;;;;;;5057263;28;20194;-68
2023/09/02 06:36:50;;;;;;;11.27;5.20;;;;;;;;;;5057096;28;20182;-66
2023/09/02 06:39:17;;;;;;;6.00;4.93;;;;;;;;;;5056941;28;20178;-67
2023/09/02 06:41:43;;;;;;;9.97;6.17;;;;;;;;;;5056592;28;20198;-65
2023/09/02 06:44:09;;;;;;;8.67;5.90;;;;;;;;;;5056596;28;20733;-67
2023/09/02 06:46:37;;;;;;;7.70;5.70;;;;;;;;;;5057341;28;20179;-65
2023/09/02 06:49:05;;;;;;;10.20;6.60;;;;;;;;;;5056520;28;20574;-65
2023/09/02 06:51:31;;;;;;;12.27;7.33;;;;;;;;;;5056969;28;20213;-65
2023/09/02 06:53:57;;;;;;;9.97;7.23;;;;;;;;;;5039263;28;20265;-65
2023/09/02 06:56:23;;;;;;;12.77;6.77;;;;;;;;;;5040702;28;20179;-65
2023/09/02 06:58:50;;;;;;;10.37;6.80;;;;;;;;;;5044617;28;20713;-65
2023/09/02 07:01:23;;;;;;;10.67;6.33;;;;;;;;;;5041391;28;20580;-66
2023/09/02 07:03:49;;;;;;;9.60;7.07;;;;;;;;;;5039983;28;20577;-66
2023/09/02 07:06:15;;;;;;;14.13;7.87;;;;;;;;;;5057238;28;20183;-67
2023/09/02 07:08:42;;;;;;;15.07;8.20;;;;;;;;;;5056408;28;20174;-67
2023/09/02 07:11:11;;;;;;;15.00;8.90;;;;;;;;;;5055883;28;20248;-66
2023/09/02 07:13:38;;;;;;;13.90;8.40;;;;;;;;;;5038193;28;20210;-66
2023/09/02 07:16:04;;;;;;;12.80;8.90;;;;;;;;;;5038206;28;20622;-66
2023/09/02 07:18:30;;;;;;;16.50;8.47;;;;;;;;;;5058787;28;20253;-67
2023/09/02 07:20:58;;;;;;;14.53;8.77;;;;;;;;;;5064261;28;20218;-66
2023/09/02 07:23:24;;;;;;;16.23;8.40;;;;;;;;;;5045856;28;20182;-66
2023/09/02 07:25:50;;;;;;;20.70;8.53;;;;;;;;;;5065100;28;20214;-66
2023/09/02 07:28:16;;;;;;;17.73;9.17;;;;;;;;;;5058631;28;20182;-66
2023/09/02 07:30:42;;;;;;;17.07;9.23;;;;;;;;;;5056721;28;20293;-66
2023/09/02 07:33:08;;;;;;;18.53;10.40;;;;;;;;;;5056210;28;20179;-67
2023/09/02 07:35:36;;;;;;;18.13;10.03;;;;;;;;;;5055905;28;20177;-66
2023/09/02 07:38:03;;;;;;;17.77;9.73;;;;;;;;;;5037749;28;20179;-67
2023/09/02 07:40:29;;;;;;;17.50;9.27;;;;;;;;;;5037534;28;20237;-67
2023/09/02 07:42:55;;;;;;;15.73;8.37;;;;;;;;;;5038062;28;20243;-66
2023/09/02 07:45:21;;;;;;;12.33;7.93;;;;;;;;;;5055870;28;20210;-65
2023/09/02 07:47:47;;;;;;;14.73;9.00;;;;;;;;;;5055426;28;20186;-67
2023/09/02 07:50:13;;;;;;;20.10;11.60;;;;;;;;;;5055012;28;20198;-66
2023/09/02 07:52:39;;;;;;;12.20;8.23;;;;;;;;;;5037137;28;20189;-66
2023/09/02 07:55:05;;;;;;;13.10;8.87;;;;;;;;;;5036933;28;20175;-66
2023/09/02 07:57:31;;;;;;;14.53;9.53;;;;;;;;;;5036812;28;20240;-66
2023/09/02 07:59:57;;;;;;;11.73;8.10;;;;;;;;;;5054931;28;20178;-67
2023/09/02 08:02:23;;;;;;;9.37;8.30;;;;;;;;;;5036856;28;20678;-67
2023/09/02 08:04:49;;;;;;;14.17;8.07;;;;;;;;;;5037120;28;20694;-66
2023/09/02 08:07:15;;;;;;;9.30;7.57;;;;;;;;;;5037706;28;20182;-65
2023/09/02 08:09:41;;;;;;;11.83;8.53;;;;;;;;;;5054564;28;20261;-67
2023/09/02 08:12:07;;;;;;;10.57;8.23;;;;;;;;;;5036842;28;20206;-65
2023/09/02 08:14:33;;;;;;;11.77;7.33;;;;;;;;;;5054882;28;20182;-66
2023/09/02 08:16:59;;;;;;;13.10;8.20;;;;;;;;;;5054527;28;20265;-66
2023/09/02 08:19:25;;;;;;;14.70;8.80;;;;;;;;;;5036467;28;20181;-66
2023/09/02 08:21:51;;;;;;;12.90;7.77;;;;;;;;;;5036433;28;20309;-66
2023/09/02 08:24:17;;;;;;;12.00;7.90;;;;;;;;;;5055016;28;20543;-65
2023/09/02 08:26:43;;;;;;;9.37;7.53;;;;;;;;;;5036476;28;20208;-66
2023/09/02 08:29:09;;;;;;;16.63;9.70;;;;;;;;;;5054607;28;20179;-66
2023/09/02 08:31:35;;;;;;;19.30;9.03;;;;;;;;;;5035939;28;20509;-65
2023/09/02 08:34:01;;;;;;;13.03;9.63;;;;;;;;;;5035980;28;20174;-65
2023/09/02 08:36:27;;;;;;;17.27;9.63;;;;;;;;;;5036247;28;20226;-65
2023/09/02 08:38:53;;;;;;;14.77;9.63;;;;;;;;;;5054142;28;20171;-65
2023/09/02 08:41:26;;;;;;;16.70;11.57;;;;;;;;;;5054078;28;20202;-65
2023/09/02 08:43:53;;;;;;;24.27;13.27;;;;;;;;;;5036138;28;20178;-65
2023/09/02 08:46:20;;;;;;;19.10;13.30;;;;;;;;;;5054111;28;20652;-66
2023/09/02 08:48:47;;;;;;;26.73;16.53;;;;;;;;;;5052780;28;20886;-66
2023/09/02 08:51:13;;;;;;;28.73;16.00;;;;;;;;;;5055641;28;20210;-66
2023/09/02 08:53:39;;;;;;;17.60;11.70;;;;;;;;;;5055946;28;20175;-66
2023/09/02 08:56:07;;;;;;;16.10;10.97;;;;;;;;;;5055187;28;20189;-65
2023/09/02 08:58:34;;;;;;;16.53;9.30;;;;;;;;;;5037031;28;20179;-66
2023/09/02 09:01:00;;;;;;;13.40;8.83;;;;;;;;;;5036997;28;20199;-66
2023/09/02 09:03:27;;;;;;;16.67;11.87;;;;;;;;;;5054960;28;20179;-66
2023/09/02 09:05:54;;;;;;;17.70;12.17;;;;;;;;;;5054916;28;20208;-66
2023/09/02 09:08:20;;;;;;;21.17;13.00;;;;;;;;;;5037069;28;20677;-66
2023/09/02 09:10:47;;;;;;;18.30;13.70;;;;;;;;;;5039113;28;20221;-65
2023/09/02 09:13:15;;;;;;;11.50;9.43;;;;;;;;;;5056780;28;20174;-65
2023/09/02 09:15:41;;;;;;;17.40;11.97;;;;;;;;;;5056229;28;20228;-67
2023/09/02 09:18:07;;;;;;;46.80;29.17;;;;;;;;;;5055778;28;20175;-66
2023/09/02 09:20:33;;;;;;;108.70;62.47;;;;;;;;;;5036081;28;20749;-68
2023/09/02 09:22:59;;;;;;;22.50;15.00;;;;;;;;;;5055205;28;20597;-67
2023/09/02 09:25:25;;;;;;;20.57;12.63;;;;;;;;;;5054912;28;20262;-67
2023/09/02 09:27:51;;;;;;;41.57;27.20;;;;;;;;;;5037620;28;20663;-67
2023/09/02 09:30:27;;;;;;;49.93;30.53;;;;;;;;;;5054371;28;20205;-67
2023/09/02 09:33:00;;;;;;;45.83;26.47;;;;;;;;;;5036975;28;20628;-67
2023/09/02 09:35:27;;;;;;;45.13;26.50;;;;;;;;;;5036699;28;20265;-67
2023/09/02 09:37:56;;;;;;;35.93;21.43;;;;;;;;;;5054462;28;20655;-67
2023/09/02 09:40:31;;;;;;;22.30;13.70;;;;;;;;;;5054237;28;20273;-66
2023/09/02 09:42:58;;;;;;;10.93;8.77;;;;;;;;;;5037169;28;20177;-67
2023/09/02 09:45:24;;;;;;;15.97;9.00;;;;;;;;;;5058832;28;20253;-67
2023/09/02 09:47:50;;;;;;;14.67;8.60;;;;;;;;;;5058340;28;20178;-68
2023/09/02 09:50:18;;;;;;;11.13;7.33;;;;;;;;;;5040536;28;20201;-67
2023/09/02 09:53:04;;;;;;;8.77;6.37;;;;;;;;;;5058940;28;20189;-68
2023/09/02 09:55:31;;;;;;;11.93;7.10;;;;;;;;;;5058710;28;20575;-67
2023/09/02 09:57:58;;;;;;;10.50;7.30;;;;;;;;;;5059614;28;20185;-67
2023/09/02 10:00:24;;;;;;;10.00;6.43;;;;;;;;;;5040806;28;20660;-67
2023/09/02 10:02:51;;;;;;;9.77;6.47;;;;;;;;;;5041124;28;20637;-68
2023/09/02 10:05:23;;;;;;;9.67;5.50;;;;;;;;;;5040513;28;20184;-68
2023/09/02 10:07:58;;;;;;;9.57;6.27;;;;;;;;;;5058467;28;20181;-67
2023/09/02 10:10:28;;;;;;;8.97;6.13;;;;;;;;;;5058128;28;20198;-68
2023/09/02 10:12:55;;;;;;;10.97;6.27;;;;;;;;;;5040269;28;20591;-66
2023/09/02 10:15:24;;;;;;;16.10;6.67;;;;;;;;;;5058140;28;20181;-67
2023/09/02 10:17:51;;;;;;;12.47;7.33;;;;;;;;;;5057551;28;20248;-67
2023/09/02 10:20:17;;;;;;;14.97;9.97;;;;;;;;;;5039142;28;20222;-67
2023/09/02 10:22:43;;;;;;;16.83;8.43;;;;;;;;;;5039326;28;20171;-67
2023/09/02 10:25:24;;;;;;;14.53;7.97;;;;;;;;;;5056891;28;20178;-67
2023/09/02 10:27:54;;;;;;;12.17;8.07;;;;;;;;;;5057378;28;20173;-67
2023/09/02 10:30:24;;;;;;;7.77;6.20;;;;;;;;;;5039060;28;20245;-66
2023/09/02 10:32:55;;;;;;;7.97;6.70;;;;;;;;;;5057441;28;20617;-66
2023/09/02 10:35:21;;;;;;;8.97;6.63;;;;;;;;;;5057392;28;20170;-67
2023/09/02 10:37:55;;;;;;;15.63;7.93;;;;;;;;;;5039802;28;20178;-67
2023/09/02 10:40:25;;;;;;;17.17;11.07;;;;;;;;;;5039752;28;20237;-67
2023/09/02 10:42:51;;;;;;;18.17;10.90;;;;;;;;;;5058098;28;20209;-67
2023/09/02 10:45:18;;;;;;;20.70;11.37;;;;;;;;;;5058531;28;20225;-67
2023/09/02 10:47:44;;;;;;;20.10;12.43;;;;;;;;;;5056812;28;20377;-68
2023/09/02 10:50:10;;;;;;;14.60;10.17;;;;;;;;;;5057549;28;20195;-67
2023/09/02 10:52:36;;;;;;;18.50;11.43;;;;;;;;;;5057715;28;20723;-67
2023/09/02 10:55:03;;;;;;;16.13;10.07;;;;;;;;;;5057263;28;20257;-67
2023/09/02 10:57:30;;;;;;;13.83;10.00;;;;;;;;;;5039163;28;20185;-67
2023/09/02 11:00:31;;;;;;;14.80;9.87;;;;;;;;;;5056622;28;20171;-67
2023/09/02 11:02:58;;;;;;;17.10;10.00;;;;;;;;;;4975839;28;20200;-67
2023/09/02 11:05:25;;;;;;;16.17;9.87;;;;;;;;;;5041632;28;20195;-68
2023/09/02 11:07:52;;;;;;;14.40;10.97;;;;;;;;;;5056995;28;20626;-68
2023/09/02 11:10:19;;;;;;;16.17;11.70;;;;;;;;;;5038735;28;20230;-68
2023/09/02 11:13:00;;;;;;;18.47;11.40;;;;;;;;;;5057175;28;20174;-68
2023/09/02 11:15:26;;;;;;;14.93;10.27;;;;;;;;;;5057025;28;20178;-68
2023/09/02 11:17:52;;;;;;;18.37;10.47;;;;;;;;;;5039015;28;20179;-67
2023/09/02 11:20:19;;;;;;;15.47;9.93;;;;;;;;;;5039036;28;20210;-66
2023/09/02 11:22:55;;;;;;;16.10;8.80;;;;;;;;;;5057379;28;20159;-67
2023/09/02 11:25:24;;;;;;;7.10;5.30;;;;;;;;;;5038625;28;20173;-66
2023/09/02 11:27:50;;;;;;;9.87;5.60;;;;;;;;;;5056652;28;20179;-68
2023/09/02 11:30:17;;;;;;;6.83;5.20;;;;;;;;;;5057013;28;20198;-67
2023/09/02 11:32:43;;;;;;;8.03;4.93;;;;;;;;;;5056339;28;20222;-67
2023/09/02 11:35:11;;;;;;;10.47;5.33;;;;;;;;;;5037388;28;20228;-67
2023/09/02 11:37:37;;;;;;;7.33;4.90;;;;;;;;;;5056399;28;20163;-67
2023/09/02 11:40:13;;;;;;;7.83;4.97;;;;;;;;;;5056533;28;20201;-67
2023/09/02 11:43:01;;;;;;;8.73;4.67;;;;;;;;;;5056716;28;20593;-67
2023/09/02 11:45:38;;;;;;;5.83;4.17;;;;;;;;;;5038361;28;20688;-67
2023/09/02 11:48:05;;;;;;;7.50;4.00;;;;;;;;;;5055955;28;20173;-67
2023/09/02 11:50:31;;;;;;;7.73;4.50;;;;;;;;;;5037874;28;20327;-68
2023/09/02 11:52:57;;;;;;;7.37;4.33;;;;;;;;;;5056158;28;20193;-68
2023/09/02 11:55:24;;;;;;;7.33;3.83;;;;;;;;;;5038206;28;20638;-67
2023/09/02 11:57:50;;;;;;;4.10;3.40;;;;;;;;;;5055707;28;20202;-66
2023/09/02 12:00:17;;;;;;;7.20;4.13;;;;;;;;;;5037210;28;20209;-67
2023/09/02 12:02:43;;;;;;;7.80;4.10;;;;;;;;;;5055688;28;20209;-67
2023/09/02 12:05:10;;;;;;;8.83;4.37;;;;;;;;;;5056085;28;20239;-66
2023/09/02 12:07:37;;;;;;;4.43;4.03;;;;;;;;;;5055440;28;20632;-67
2023/09/02 12:10:10;;;;;;;7.97;4.50;;;;;;;;;;5056410;28;20277;-67
2023/09/02 12:12:39;;;;;;;6.37;4.80;;;;;;;;;;5056286;28;20207;-67
2023/09/02 12:15:05;;;;;;;5.57;4.40;;;;;;;;;;5038045;28;20667;-69
2023/09/02 12:17:31;;;;;;;5.60;3.73;;;;;;;;;;5055669;28;20319;-71
2023/09/02 12:19:58;;;;;;;10.40;4.10;;;;;;;;;;5037452;28;20183;-66
2023/09/02 12:22:25;;;;;;;7.03;4.63;;;;;;;;;;5056188;28;20617;-67
2023/09/02 12:24:51;;;;;;;5.33;4.33;;;;;;;;;;5055441;28;20331;-68
2023/09/02 12:27:17;;;;;;;7.37;4.93;;;;;;;;;;5055471;28;20694;-68
2023/09/02 12:29:54;;;;;;;4.87;4.20;;;;;;;;;;5055621;28;20174;-69
2023/09/02 12:32:20;;;;;;;4.67;4.20;;;;;;;;;;5056310;28;20208;-68
2023/09/02 12:34:46;;;;;;;7.33;3.90;;;;;;;;;;5056002;28;20171;-69
2023/09/02 12:37:18;;;;;;;6.80;4.17;;;;;;;;;;5056289;28;20184;-68
2023/09/02 12:39:44;;;;;;;5.23;3.57;;;;;;;;;;5056083;28;20182;-68
2023/09/02 12:42:16;;;;;;;4.97;3.50;;;;;;;;;;5037107;28;20189;-67
2023/09/02 12:44:48;;;;;;;7.70;3.93;;;;;;;;;;5037527;28;20224;-70
2023/09/02 12:47:23;;;;;;;4.67;3.60;;;;;;;;;;5055437;28;20668;-68
2023/09/02 12:49:49;;;;;;;5.37;3.90;;;;;;;;;;5055535;28;20261;-68
2023/09/02 12:52:20;;;;;;;8.37;3.70;;;;;;;;;;5055873;28;20268;-66
2023/09/02 12:54:56;;;;;;;7.63;4.17;;;;;;;;;;5049316;22;20234;-71
2023/09/02 12:57:23;;;;;;;7.27;4.13;;;;;;;;;;5016669;28;20193;-69
2023/09/02 12:59:49;;;;;;;5.40;3.53;;;;;;;;;;5017518;28;20270;-70
2023/09/02 13:02:15;;;;;;;4.17;3.13;;;;;;;;;;5034973;28;20179;-67
2023/09/02 13:04:41;;;;;;;6.43;3.33;;;;;;;;;;5016734;28;20301;-68
2023/09/02 13:07:07;;;;;;;5.73;3.40;;;;;;;;;;5034836;28;20183;-70
2023/09/02 13:09:33;;;;;;;3.67;2.80;;;;;;;;;;5016896;28;20179;-70
2023/09/02 13:12:01;;;;;;;3.90;3.50;;;;;;;;;;5016824;28;20210;-70
2023/09/02 13:14:28;;;;;;;8.80;7.43;;;;;;;;;;5017003;28;20587;-71
2023/09/02 13:16:54;;;;;;;8.57;7.70;;;;;;;;;;5037200;28;20175;-70
2023/09/02 13:19:21;;;;;;;9.57;8.57;;;;;;;;;;5019159;28;20193;-70
2023/09/02 13:21:47;;;;;;;8.80;8.00;;;;;;;;;;5035066;28;20183;-68
2023/09/02 13:24:15;;;;;;;10.60;7.30;;;;;;;;;;5035362;28;20261;-68
2023/09/02 13:26:44;;;;;;;9.27;8.37;;;;;;;;;;5034279;28;20179;-68
2023/09/02 13:29:10;;;;;;;13.10;11.93;;;;;;;;;;5016484;28;20190;-68
2023/09/02 13:31:36;;;;;;;12.33;11.23;;;;;;;;;;5034407;28;20195;-71
2023/09/02 13:34:06;;;;;;;13.30;11.90;;;;;;;;;;5035258;28;20183;-70
2023/09/02 13:36:32;;;;;;;13.57;12.47;;;;;;;;;;5020157;28;20333;-68
2023/09/02 13:38:58;;;;;;;14.43;12.93;;;;;;;;;;5034767;28;20182;-69
2023/09/02 13:41:25;;;;;;;15.70;13.03;;;;;;;;;;5034076;28;20641;-68
2023/09/02 13:43:51;;;;;;;13.53;12.33;;;;;;;;;;5034503;28;20187;-68
2023/09/02 13:46:17;;;;;;;12.20;11.20;;;;;;;;;;5016719;28;20573;-68
2023/09/02 13:48:44;;;;;;;14.23;13.03;;;;;;;;;;5034137;28;20276;-69
2023/09/02 13:51:13;;;;;;;15.67;14.23;;;;;;;;;;5033725;28;20206;-68
2023/09/02 13:53:39;;;;;;;15.87;14.47;;;;;;;;;;5034207;28;20178;-71
2023/09/02 13:56:05;;;;;;;16.03;13.87;;;;;;;;;;5016317;28;20591;-67
2023/09/02 13:58:35;;;;;;;14.77;13.37;;;;;;;;;;5034738;28;20632;-68
2023/09/02 14:01:01;;;;;;;13.27;12.17;;;;;;;;;;5016326;28;20663;-68
2023/09/02 14:03:28;;;;;;;13.73;11.87;;;;;;;;;;5034217;28;20249;-68
2023/09/02 14:05:55;;;;;;;14.07;12.67;;;;;;;;;;5034163;28;20195;-67
2023/09/02 14:08:21;;;;;;;15.00;13.63;;;;;;;;;;5034032;28;20181;-68
2023/09/02 14:10:48;;;;;;;15.30;13.17;;;;;;;;;;5034126;28;20199;-68
2023/09/02 14:13:17;;;;;;;13.43;12.33;;;;;;;;;;5015964;28;20190;-68
2023/09/02 14:15:45;;;;;;;14.60;13.10;;;;;;;;;;5034280;28;20656;-66
2023/09/02 14:18:11;;;;;;;15.10;13.80;;;;;;;;;;5033767;28;20190;-69
2023/09/02 14:20:37;;;;;;;14.77;13.37;;;;;;;;;;5034026;28;20175;-70
2023/09/02 14:23:03;;;;;;;15.50;14.00;;;;;;;;;;5017982;28;20555;-69
2023/09/02 14:25:29;;;;;;;15.57;14.03;;;;;;;;;;5035000;28;20274;-69